Ana Sayfa
METAR-TAF:

METAR-TAF

Havaalanları :

Antananarivo, Madagaskar

Enlem: 18-48S, Boylam: 047-29E, yükseklik: 1279 m

Güncel hava durumu gözlemi

Rapor saat 07:00 UTC de 32 dakika önce yapıldı.
Rüzgar güneydoğudan 6 kt, doğu ve güney arasında değişken
Sıcaklık 22°C
Nem 41%
Basınç 1025 hPa
Görüş mesafesi 10 km veya daha fazla
1500 m altında bulut yok ve kümülonimbus yok

METAR: FMMI 250700Z 13006KT 090V190 CAVOK 22/08 Q1025 NOSIG

Saat: 10:32 (07:32 UTC)

Tahmin

Rapor saat 05:00 UTC de 2 saat ve 32 dakika önce yapıldı.
Ayın 25'si saat 06 UTC'den ayın 26'si saat 12 UTC'ye kadar geçerli Tahmin
Rüzgar doğu/güneydoğudan 7 kt
Görüş mesafesi 10 km veya daha fazla
2000 ft yükseklikte az bulutlu
Olasılık 30%
ayın 26'si saat 02 UTC'den ayın 26'si saat 05 UTC'ye kadar
Görüş mesafesi: 2000 m
Pus

TAF: FMMI 250500Z 2506/2612 12007KT 9999 FEW020 PROB30 2602/2605 2000 BR

4.000'den fazla havaalanı için hava durumu gözlemleri ve tahminleri (METAR ve TAF raporları).

Kullanılabilir istasyonlar harita üzerinde sarı ve kırmızı noktalarla gösterilir.

İstasyonun adını görmek için fareyi noktanın üzerinde gezdirin.

Sonrasında hava gözlem ve tahminlerini görmek için tıklayın.

Haritayı değiştirmek için: yaklaştırmak için siyah artı işaretli yeşil düğmeye ve uzaklaştırmak için de eksi işaretli düğmeye hızla tıklayın; bitişik haritalar için yeşil okları kullanın.


METAR-TAF: